sensor_id;sensor_type;location;lat;lon;timestamp;P1;durP1;ratioP1;P2;durP2;ratioP2
21162;SDS011;10739;52.198;20.908;2023-02-01T00:00:34;17.08;;;13.20;;
21162;SDS011;10739;52.198;20.908;2023-02-01T00:03:01;14.68;;;10.82;;
21162;SDS011;10739;52.198;20.908;2023-02-01T00:05:27;18.98;;;12.80;;
21162;SDS011;10739;52.198;20.908;2023-02-01T00:07:54;16.33;;;12.40;;
21162;SDS011;10739;52.198;20.908;2023-02-01T00:10:20;18.95;;;13.45;;
21162;SDS011;10739;52.198;20.908;2023-02-01T00:12:47;18.30;;;10.57;;
21162;SDS011;10739;52.198;20.908;2023-02-01T00:15:13;19.63;;;11.25;;
21162;SDS011;10739;52.198;20.908;2023-02-01T00:17:42;13.82;;;10.20;;
21162;SDS011;10739;52.198;20.908;2023-02-01T00:20:09;14.05;;;10.13;;
21162;SDS011;10739;52.198;20.908;2023-02-01T00:22:36;13.50;;;9.15;;
21162;SDS011;10739;52.198;20.908;2023-02-01T00:25:02;14.52;;;8.98;;
21162;SDS011;10739;52.198;20.908;2023-02-01T00:27:29;11.13;;;8.95;;
21162;SDS011;10739;52.198;20.908;2023-02-01T00:29:55;11.18;;;8.25;;
21162;SDS011;10739;52.198;20.908;2023-02-01T00:32:22;8.85;;;6.50;;
21162;SDS011;10739;52.198;20.908;2023-02-01T00:34:49;7.65;;;6.15;;
21162;SDS011;10739;52.198;20.908;2023-02-01T00:37:15;6.90;;;5.15;;
21162;SDS011;10739;52.198;20.908;2023-02-01T00:39:41;7.00;;;5.63;;
21162;SDS011;10739;52.198;20.908;2023-02-01T00:42:08;6.18;;;5.55;;
21162;SDS011;10739;52.198;20.908;2023-02-01T00:44:35;8.68;;;6.35;;
21162;SDS011;10739;52.198;20.908;2023-02-01T00:47:01;9.15;;;6.00;;
21162;SDS011;10739;52.198;20.908;2023-02-01T00:49:28;8.93;;;6.45;;
21162;SDS011;10739;52.198;20.908;2023-02-01T00:51:54;7.63;;;5.72;;
21162;SDS011;10739;52.198;20.908;2023-02-01T00:54:21;6.65;;;4.88;;
21162;SDS011;10739;52.198;20.908;2023-02-01T00:56:48;5.70;;;3.63;;
21162;SDS011;10739;52.198;20.908;2023-02-01T00:59:14;4.60;;;3.17;;
21162;SDS011;10739;52.198;20.908;2023-02-01T01:01:41;3.10;;;2.40;;
21162;SDS011;10739;52.198;20.908;2023-02-01T01:04:07;9.63;;;2.40;;
21162;SDS011;10739;52.198;20.908;2023-02-01T01:06:34;6.32;;;2.28;;
21162;SDS011;10739;52.198;20.908;2023-02-01T01:09:02;6.00;;;1.88;;
21162;SDS011;10739;52.198;20.908;2023-02-01T01:11:33;4.75;;;2.03;;
21162;SDS011;10739;52.198;20.908;2023-02-01T01:14:03;7.75;;;1.67;;
21162;SDS011;10739;52.198;20.908;2023-02-01T01:16:32;6.10;;;1.60;;
21162;SDS011;10739;52.198;20.908;2023-02-01T01:19:00;9.00;;;1.75;;
21162;SDS011;10739;52.198;20.908;2023-02-01T01:21:27;8.15;;;1.75;;
21162;SDS011;10739;52.198;20.908;2023-02-01T01:23:55;6.13;;;1.63;;
21162;SDS011;10739;52.198;20.908;2023-02-01T01:26:22;8.65;;;1.83;;
21162;SDS011;10739;52.198;20.908;2023-02-01T01:28:52;6.75;;;2.03;;
21162;SDS011;10739;52.198;20.908;2023-02-01T01:31:21;8.30;;;1.98;;
21162;SDS011;10739;52.198;20.908;2023-02-01T01:33:52;3.63;;;1.75;;
21162;SDS011;10739;52.198;20.908;2023-02-01T01:36:21;7.43;;;1.70;;
21162;SDS011;10739;52.198;20.908;2023-02-01T01:38:49;5.68;;;1.88;;
21162;SDS011;10739;52.198;20.908;2023-02-01T01:41:18;3.83;;;1.52;;
21162;SDS011;10739;52.198;20.908;2023-02-01T01:43:55;8.52;;;3.30;;
21162;SDS011;10739;52.198;20.908;2023-02-01T01:46:29;8.98;;;2.10;;
21162;SDS011;10739;52.198;20.908;2023-02-01T01:49:12;6.38;;;2.15;;
21162;SDS011;10739;52.198;20.908;2023-02-01T01:51:47;6.07;;;1.87;;
21162;SDS011;10739;52.198;20.908;2023-02-01T01:54:25;4.38;;;2.03;;
21162;SDS011;10739;52.198;20.908;2023-02-01T01:57:20;4.95;;;2.30;;
21162;SDS011;10739;52.198;20.908;2023-02-01T02:00:03;9.35;;;2.53;;
21162;SDS011;10739;52.198;20.908;2023-02-01T02:02:35;7.00;;;2.53;;
21162;SDS011;10739;52.198;20.908;2023-02-01T02:05:04;13.57;;;3.25;;
21162;SDS011;10739;52.198;20.908;2023-02-01T02:07:33;15.75;;;2.63;;
21162;SDS011;10739;52.198;20.908;2023-02-01T02:10:05;6.72;;;2.35;;
21162;SDS011;10739;52.198;20.908;2023-02-01T02:12:39;10.90;;;2.28;;
21162;SDS011;10739;52.198;20.908;2023-02-01T02:15:10;8.25;;;2.70;;
21162;SDS011;10739;52.198;20.908;2023-02-01T02:21:10;8.77;;;2.45;;
21162;SDS011;10739;52.198;20.908;2023-02-01T02:24:09;12.38;;;3.30;;
21162;SDS011;10739;52.198;20.908;2023-02-01T02:30:30;8.35;;;2.63;;
21162;SDS011;10739;52.198;20.908;2023-02-01T02:45:24;13.57;;;2.80;;
21162;SDS011;10739;52.198;20.908;2023-02-01T02:48:25;18.25;;;3.72;;
21162;SDS011;10739;52.198;20.908;2023-02-01T02:54:44;12.95;;;2.88;;
21162;SDS011;10739;52.198;20.908;2023-02-01T02:57:21;13.27;;;2.75;;
21162;SDS011;10739;52.198;20.908;2023-02-01T03:00:21;18.05;;;3.42;;
21162;SDS011;10739;52.198;20.908;2023-02-01T03:03:12;8.30;;;2.25;;
21162;SDS011;10739;52.198;20.908;2023-02-01T03:05:58;10.35;;;2.83;;
21162;SDS011;10739;52.198;20.908;2023-02-01T03:08:29;9.60;;;3.08;;
21162;SDS011;10739;52.198;20.908;2023-02-01T03:16:22;13.68;;;2.78;;
21162;SDS011;10739;52.198;20.908;2023-02-01T03:19:02;13.93;;;2.70;;
21162;SDS011;10739;52.198;20.908;2023-02-01T03:24:11;11.35;;;2.70;;
21162;SDS011;10739;52.198;20.908;2023-02-01T03:27:11;17.27;;;3.55;;
21162;SDS011;10739;52.198;20.908;2023-02-01T03:30:10;14.38;;;2.65;;
21162;SDS011;10739;52.198;20.908;2023-02-01T03:32:51;15.95;;;3.05;;
21162;SDS011;10739;52.198;20.908;2023-02-01T03:38:21;14.73;;;3.70;;
21162;SDS011;10739;52.198;20.908;2023-02-01T03:41:17;14.50;;;2.80;;
21162;SDS011;10739;52.198;20.908;2023-02-01T03:47:00;8.38;;;2.63;;
21162;SDS011;10739;52.198;20.908;2023-02-01T03:49:40;15.77;;;3.03;;
21162;SDS011;10739;52.198;20.908;2023-02-01T03:52:16;20.92;;;3.03;;
21162;SDS011;10739;52.198;20.908;2023-02-01T03:54:50;17.85;;;3.15;;
21162;SDS011;10739;52.198;20.908;2023-02-01T03:57:19;14.70;;;2.90;;
21162;SDS011;10739;52.198;20.908;2023-02-01T03:59:54;12.85;;;2.83;;
21162;SDS011;10739;52.198;20.908;2023-02-01T04:02:42;17.85;;;3.20;;
21162;SDS011;10739;52.198;20.908;2023-02-01T04:05:08;12.10;;;3.40;;
21162;SDS011;10739;52.198;20.908;2023-02-01T04:07:35;9.02;;;3.30;;
21162;SDS011;10739;52.198;20.908;2023-02-01T04:10:01;16.02;;;3.22;;
21162;SDS011;10739;52.198;20.908;2023-02-01T04:12:29;11.82;;;3.03;;
21162;SDS011;10739;52.198;20.908;2023-02-01T04:14:55;18.52;;;3.22;;
21162;SDS011;10739;52.198;20.908;2023-02-01T04:17:21;17.70;;;2.90;;
21162;SDS011;10739;52.198;20.908;2023-02-01T04:19:47;11.48;;;3.08;;
21162;SDS011;10739;52.198;20.908;2023-02-01T04:22:14;17.63;;;3.20;;
21162;SDS011;10739;52.198;20.908;2023-02-01T04:24:41;11.63;;;3.13;;
21162;SDS011;10739;52.198;20.908;2023-02-01T04:27:07;19.45;;;2.92;;
21162;SDS011;10739;52.198;20.908;2023-02-01T04:29:34;14.88;;;2.65;;
21162;SDS011;10739;52.198;20.908;2023-02-01T04:32:00;18.65;;;3.25;;
21162;SDS011;10739;52.198;20.908;2023-02-01T04:34:27;13.27;;;2.88;;
21162;SDS011;10739;52.198;20.908;2023-02-01T04:36:54;13.93;;;3.50;;
21162;SDS011;10739;52.198;20.908;2023-02-01T04:39:20;13.93;;;2.65;;
21162;SDS011;10739;52.198;20.908;2023-02-01T04:41:46;16.70;;;3.13;;
21162;SDS011;10739;52.198;20.908;2023-02-01T04:44:14;12.90;;;2.55;;
21162;SDS011;10739;52.198;20.908;2023-02-01T04:46:44;11.10;;;2.85;;
21162;SDS011;10739;52.198;20.908;2023-02-01T04:49:12;15.32;;;3.17;;
21162;SDS011;10739;52.198;20.908;2023-02-01T04:51:43;19.40;;;2.75;;
21162;SDS011;10739;52.198;20.908;2023-02-01T04:54:21;13.38;;;2.83;;
21162;SDS011;10739;52.198;20.908;2023-02-01T04:56:48;14.20;;;2.90;;
21162;SDS011;10739;52.198;20.908;2023-02-01T04:59:14;15.07;;;2.95;;
21162;SDS011;10739;52.198;20.908;2023-02-01T05:01:40;13.27;;;2.90;;
21162;SDS011;10739;52.198;20.908;2023-02-01T05:04:07;18.55;;;3.53;;
21162;SDS011;10739;52.198;20.908;2023-02-01T05:06:33;18.67;;;3.80;;
21162;SDS011;10739;52.198;20.908;2023-02-01T05:08:59;14.98;;;2.88;;
21162;SDS011;10739;52.198;20.908;2023-02-01T05:11:26;13.05;;;2.90;;
21162;SDS011;10739;52.198;20.908;2023-02-01T05:14:10;15.40;;;3.13;;
21162;SDS011;10739;52.198;20.908;2023-02-01T05:16:37;17.23;;;3.40;;
21162;SDS011;10739;52.198;20.908;2023-02-01T05:19:03;13.63;;;3.15;;
21162;SDS011;10739;52.198;20.908;2023-02-01T05:21:30;19.55;;;3.00;;
21162;SDS011;10739;52.198;20.908;2023-02-01T05:23:56;16.67;;;3.42;;
21162;SDS011;10739;52.198;20.908;2023-02-01T05:26:35;12.38;;;2.80;;
21162;SDS011;10739;52.198;20.908;2023-02-01T05:29:03;15.90;;;3.95;;
21162;SDS011;10739;52.198;20.908;2023-02-01T05:31:30;20.38;;;3.72;;
21162;SDS011;10739;52.198;20.908;2023-02-01T05:33:57;12.13;;;3.20;;
21162;SDS011;10739;52.198;20.908;2023-02-01T05:36:23;15.30;;;3.30;;
21162;SDS011;10739;52.198;20.908;2023-02-01T05:38:50;12.90;;;3.17;;
21162;SDS011;10739;52.198;20.908;2023-02-01T05:41:17;11.70;;;2.85;;
21162;SDS011;10739;52.198;20.908;2023-02-01T05:43:43;15.07;;;3.95;;
21162;SDS011;10739;52.198;20.908;2023-02-01T05:46:09;20.45;;;3.17;;
21162;SDS011;10739;52.198;20.908;2023-02-01T05:48:41;16.27;;;3.42;;
21162;SDS011;10739;52.198;20.908;2023-02-01T05:51:09;17.52;;;4.63;;
21162;SDS011;10739;52.198;20.908;2023-02-01T05:53:36;23.50;;;3.90;;
21162;SDS011;10739;52.198;20.908;2023-02-01T05:56:03;16.60;;;3.40;;
21162;SDS011;10739;52.198;20.908;2023-02-01T05:58:30;17.13;;;3.53;;
21162;SDS011;10739;52.198;20.908;2023-02-01T06:01:00;13.88;;;3.35;;
21162;SDS011;10739;52.198;20.908;2023-02-01T06:03:27;16.35;;;4.03;;
21162;SDS011;10739;52.198;20.908;2023-02-01T06:05:54;11.93;;;4.13;;
21162;SDS011;10739;52.198;20.908;2023-02-01T06:08:21;21.52;;;3.42;;
21162;SDS011;10739;52.198;20.908;2023-02-01T06:10:49;18.17;;;3.63;;
21162;SDS011;10739;52.198;20.908;2023-02-01T06:13:15;16.30;;;3.83;;
21162;SDS011;10739;52.198;20.908;2023-02-01T06:15:42;11.57;;;2.72;;
21162;SDS011;10739;52.198;20.908;2023-02-01T06:18:09;15.60;;;3.03;;
21162;SDS011;10739;52.198;20.908;2023-02-01T06:20:35;11.77;;;2.75;;
21162;SDS011;10739;52.198;20.908;2023-02-01T06:23:01;12.30;;;3.15;;
21162;SDS011;10739;52.198;20.908;2023-02-01T06:25:30;15.05;;;2.88;;
21162;SDS011;10739;52.198;20.908;2023-02-01T06:27:59;14.35;;;3.92;;
21162;SDS011;10739;52.198;20.908;2023-02-01T06:30:26;20.38;;;4.35;;
21162;SDS011;10739;52.198;20.908;2023-02-01T06:32:53;15.00;;;3.00;;
21162;SDS011;10739;52.198;20.908;2023-02-01T06:35:19;15.43;;;3.40;;
21162;SDS011;10739;52.198;20.908;2023-02-01T06:37:46;15.13;;;3.45;;
21162;SDS011;10739;52.198;20.908;2023-02-01T06:40:13;15.55;;;3.25;;
21162;SDS011;10739;52.198;20.908;2023-02-01T06:42:39;18.45;;;3.15;;
21162;SDS011;10739;52.198;20.908;2023-02-01T06:45:06;12.68;;;2.65;;
21162;SDS011;10739;52.198;20.908;2023-02-01T06:47:33;14.95;;;3.20;;
21162;SDS011;10739;52.198;20.908;2023-02-01T06:49:59;13.40;;;3.45;;
21162;SDS011;10739;52.198;20.908;2023-02-01T06:52:26;19.80;;;3.75;;
21162;SDS011;10739;52.198;20.908;2023-02-01T06:54:52;12.93;;;3.20;;
21162;SDS011;10739;52.198;20.908;2023-02-01T06:57:18;11.68;;;2.83;;
21162;SDS011;10739;52.198;20.908;2023-02-01T06:59:45;11.60;;;2.85;;
21162;SDS011;10739;52.198;20.908;2023-02-01T07:02:11;9.27;;;2.90;;
21162;SDS011;10739;52.198;20.908;2023-02-01T07:04:38;12.18;;;2.80;;
21162;SDS011;10739;52.198;20.908;2023-02-01T07:07:04;10.27;;;3.10;;
21162;SDS011;10739;52.198;20.908;2023-02-01T07:09:31;17.95;;;3.20;;
21162;SDS011;10739;52.198;20.908;2023-02-01T07:11:57;22.30;;;3.17;;
21162;SDS011;10739;52.198;20.908;2023-02-01T07:14:23;15.70;;;3.10;;
21162;SDS011;10739;52.198;20.908;2023-02-01T07:16:50;14.55;;;3.30;;
21162;SDS011;10739;52.198;20.908;2023-02-01T07:19:16;15.15;;;3.13;;
21162;SDS011;10739;52.198;20.908;2023-02-01T07:21:42;16.27;;;3.75;;
21162;SDS011;10739;52.198;20.908;2023-02-01T07:24:09;13.05;;;3.30;;
21162;SDS011;10739;52.198;20.908;2023-02-01T07:26:35;18.60;;;4.70;;
21162;SDS011;10739;52.198;20.908;2023-02-01T07:29:02;13.73;;;4.20;;
21162;SDS011;10739;52.198;20.908;2023-02-01T07:31:28;10.88;;;2.75;;
21162;SDS011;10739;52.198;20.908;2023-02-01T07:33:56;14.40;;;3.28;;
21162;SDS011;10739;52.198;20.908;2023-02-01T07:36:23;14.32;;;3.17;;
21162;SDS011;10739;52.198;20.908;2023-02-01T07:38:50;16.98;;;3.60;;
21162;SDS011;10739;52.198;20.908;2023-02-01T07:41:17;19.48;;;3.40;;
21162;SDS011;10739;52.198;20.908;2023-02-01T07:43:43;18.48;;;3.45;;
21162;SDS011;10739;52.198;20.908;2023-02-01T07:46:10;15.82;;;3.75;;
21162;SDS011;10739;52.198;20.908;2023-02-01T07:48:37;14.90;;;3.25;;
21162;SDS011;10739;52.198;20.908;2023-02-01T07:51:13;18.67;;;3.40;;
21162;SDS011;10739;52.198;20.908;2023-02-01T07:53:42;21.55;;;3.35;;
21162;SDS011;10739;52.198;20.908;2023-02-01T07:56:19;19.80;;;3.15;;
21162;SDS011;10739;52.198;20.908;2023-02-01T07:58:48;16.70;;;3.65;;
21162;SDS011;10739;52.198;20.908;2023-02-01T08:01:21;20.27;;;2.92;;
21162;SDS011;10739;52.198;20.908;2023-02-01T08:03:50;15.57;;;3.70;;
21162;SDS011;10739;52.198;20.908;2023-02-01T08:06:24;13.13;;;3.05;;
21162;SDS011;10739;52.198;20.908;2023-02-01T08:08:52;13.43;;;2.95;;
21162;SDS011;10739;52.198;20.908;2023-02-01T08:11:19;13.82;;;3.25;;
21162;SDS011;10739;52.198;20.908;2023-02-01T08:13:47;13.90;;;3.53;;
21162;SDS011;10739;52.198;20.908;2023-02-01T08:16:15;16.17;;;3.05;;
21162;SDS011;10739;52.198;20.908;2023-02-01T08:18:44;19.48;;;4.18;;
21162;SDS011;10739;52.198;20.908;2023-02-01T08:21:15;29.13;;;4.40;;
21162;SDS011;10739;52.198;20.908;2023-02-01T08:23:48;18.42;;;4.10;;
21162;SDS011;10739;52.198;20.908;2023-02-01T08:26:17;19.23;;;3.60;;
21162;SDS011;10739;52.198;20.908;2023-02-01T08:28:50;20.52;;;4.22;;
21162;SDS011;10739;52.198;20.908;2023-02-01T08:31:23;14.95;;;3.10;;
21162;SDS011;10739;52.198;20.908;2023-02-01T08:33:53;24.02;;;3.63;;
21162;SDS011;10739;52.198;20.908;2023-02-01T08:36:22;11.77;;;3.53;;
21162;SDS011;10739;52.198;20.908;2023-02-01T08:38:50;17.10;;;3.30;;
21162;SDS011;10739;52.198;20.908;2023-02-01T08:41:21;22.15;;;4.20;;
21162;SDS011;10739;52.198;20.908;2023-02-01T08:43:51;14.68;;;3.35;;
21162;SDS011;10739;52.198;20.908;2023-02-01T08:46:19;19.23;;;3.50;;
21162;SDS011;10739;52.198;20.908;2023-02-01T08:48:46;12.25;;;3.22;;
21162;SDS011;10739;52.198;20.908;2023-02-01T08:51:15;15.32;;;3.53;;
21162;SDS011;10739;52.198;20.908;2023-02-01T08:53:45;9.40;;;3.00;;
21162;SDS011;10739;52.198;20.908;2023-02-01T08:56:14;15.07;;;3.83;;
21162;SDS011;10739;52.198;20.908;2023-02-01T08:58:42;13.00;;;3.58;;
21162;SDS011;10739;52.198;20.908;2023-02-01T09:01:11;19.75;;;3.42;;
21162;SDS011;10739;52.198;20.908;2023-02-01T09:03:41;12.98;;;3.90;;
21162;SDS011;10739;52.198;20.908;2023-02-01T09:06:09;10.68;;;3.17;;
21162;SDS011;10739;52.198;20.908;2023-02-01T09:08:39;12.38;;;3.65;;
21162;SDS011;10739;52.198;20.908;2023-02-01T09:11:08;19.23;;;4.70;;
21162;SDS011;10739;52.198;20.908;2023-02-01T09:13:41;21.33;;;4.05;;
21162;SDS011;10739;52.198;20.908;2023-02-01T09:16:08;13.23;;;3.70;;
21162;SDS011;10739;52.198;20.908;2023-02-01T09:18:34;12.63;;;3.38;;
21162;SDS011;10739;52.198;20.908;2023-02-01T09:21:07;13.50;;;3.90;;
21162;SDS011;10739;52.198;20.908;2023-02-01T09:23:34;11.90;;;3.50;;
21162;SDS011;10739;52.198;20.908;2023-02-01T09:26:01;16.17;;;3.42;;
21162;SDS011;10739;52.198;20.908;2023-02-01T09:28:30;12.55;;;3.80;;
21162;SDS011;10739;52.198;20.908;2023-02-01T09:30:57;15.25;;;3.75;;
21162;SDS011;10739;52.198;20.908;2023-02-01T09:33:26;12.35;;;3.50;;
21162;SDS011;10739;52.198;20.908;2023-02-01T09:35:57;12.65;;;4.18;;
21162;SDS011;10739;52.198;20.908;2023-02-01T09:38:26;12.55;;;3.47;;
21162;SDS011;10739;52.198;20.908;2023-02-01T09:40:54;13.50;;;3.63;;
21162;SDS011;10739;52.198;20.908;2023-02-01T09:46:24;11.35;;;3.17;;
21162;SDS011;10739;52.198;20.908;2023-02-01T09:49:00;14.68;;;4.18;;
21162;SDS011;10739;52.198;20.908;2023-02-01T09:51:36;16.67;;;3.60;;
21162;SDS011;10739;52.198;20.908;2023-02-01T09:56:49;13.90;;;3.50;;
21162;SDS011;10739;52.198;20.908;2023-02-01T10:02:14;13.80;;;3.45;;
21162;SDS011;10739;52.198;20.908;2023-02-01T10:04:47;13.80;;;3.78;;
21162;SDS011;10739;52.198;20.908;2023-02-01T10:10:09;11.70;;;3.83;;
21162;SDS011;10739;52.198;20.908;2023-02-01T10:15:35;19.23;;;3.47;;
21162;SDS011;10739;52.198;20.908;2023-02-01T10:18:43;14.40;;;3.28;;
21162;SDS011;10739;52.198;20.908;2023-02-01T10:24:41;14.38;;;3.17;;
21162;SDS011;10739;52.198;20.908;2023-02-01T10:27:55;13.52;;;3.25;;
21162;SDS011;10739;52.198;20.908;2023-02-01T10:32:48;11.85;;;3.33;;
21162;SDS011;10739;52.198;20.908;2023-02-01T10:35:24;9.75;;;2.90;;
21162;SDS011;10739;52.198;20.908;2023-02-01T10:38:00;10.73;;;3.58;;
21162;SDS011;10739;52.198;20.908;2023-02-01T10:40:27;16.95;;;3.75;;
21162;SDS011;10739;52.198;20.908;2023-02-01T10:42:59;18.70;;;4.50;;
21162;SDS011;10739;52.198;20.908;2023-02-01T10:47:57;15.27;;;3.40;;
21162;SDS011;10739;52.198;20.908;2023-02-01T10:50:31;11.40;;;3.57;;
21162;SDS011;10739;52.198;20.908;2023-02-01T10:53:25;17.35;;;4.05;;
21162;SDS011;10739;52.198;20.908;2023-02-01T10:56:18;13.02;;;3.95;;
21162;SDS011;10739;52.198;20.908;2023-02-01T10:58:59;16.10;;;3.72;;
21162;SDS011;10739;52.198;20.908;2023-02-01T11:01:42;15.63;;;3.60;;
21162;SDS011;10739;52.198;20.908;2023-02-01T11:04:18;17.35;;;3.83;;
21162;SDS011;10739;52.198;20.908;2023-02-01T11:06:53;13.80;;;4.30;;
21162;SDS011;10739;52.198;20.908;2023-02-01T11:09:42;12.98;;;3.45;;
21162;SDS011;10739;52.198;20.908;2023-02-01T11:12:25;16.73;;;4.95;;
21162;SDS011;10739;52.198;20.908;2023-02-01T11:15:13;14.32;;;4.22;;
21162;SDS011;10739;52.198;20.908;2023-02-01T11:17:49;12.93;;;3.40;;
21162;SDS011;10739;52.198;20.908;2023-02-01T11:20:21;11.43;;;3.47;;
21162;SDS011;10739;52.198;20.908;2023-02-01T11:22:58;13.07;;;3.53;;
21162;SDS011;10739;52.198;20.908;2023-02-01T11:25:26;12.30;;;4.00;;
21162;SDS011;10739;52.198;20.908;2023-02-01T11:27:53;16.77;;;4.60;;
21162;SDS011;10739;52.198;20.908;2023-02-01T11:33:02;17.73;;;4.55;;
21162;SDS011;10739;52.198;20.908;2023-02-01T11:35:31;11.38;;;3.15;;
21162;SDS011;10739;52.198;20.908;2023-02-01T11:38:09;13.98;;;4.03;;
21162;SDS011;10739;52.198;20.908;2023-02-01T11:40:46;12.75;;;4.30;;
21162;SDS011;10739;52.198;20.908;2023-02-01T11:45:58;18.88;;;4.25;;
21162;SDS011;10739;52.198;20.908;2023-02-01T11:48:28;20.55;;;4.32;;
21162;SDS011;10739;52.198;20.908;2023-02-01T11:56:55;13.40;;;4.10;;
21162;SDS011;10739;52.198;20.908;2023-02-01T12:02:39;16.05;;;4.78;;
21162;SDS011;10739;52.198;20.908;2023-02-01T12:09:06;16.80;;;4.47;;
21162;SDS011;10739;52.198;20.908;2023-02-01T12:17:48;16.25;;;3.70;;
21162;SDS011;10739;52.198;20.908;2023-02-01T12:32:26;19.83;;;4.78;;
21162;SDS011;10739;52.198;20.908;2023-02-01T12:38:36;27.25;;;5.75;;
21162;SDS011;10739;52.198;20.908;2023-02-01T12:44:35;18.90;;;4.97;;
21162;SDS011;10739;52.198;20.908;2023-02-01T12:52:47;20.20;;;5.05;;
21162;SDS011;10739;52.198;20.908;2023-02-01T12:55:20;17.70;;;4.97;;
21162;SDS011;10739;52.198;20.908;2023-02-01T12:58:17;22.92;;;5.00;;
21162;SDS011;10739;52.198;20.908;2023-02-01T13:00:49;16.60;;;4.35;;
21162;SDS011;10739;52.198;20.908;2023-02-01T13:06:51;16.05;;;4.38;;
21162;SDS011;10739;52.198;20.908;2023-02-01T13:10:05;25.85;;;5.47;;
21162;SDS011;10739;52.198;20.908;2023-02-01T13:12:49;23.83;;;5.28;;
21162;SDS011;10739;52.198;20.908;2023-02-01T13:15:28;15.55;;;3.83;;
21162;SDS011;10739;52.198;20.908;2023-02-01T13:18:04;23.17;;;5.50;;
21162;SDS011;10739;52.198;20.908;2023-02-01T13:20:45;21.60;;;5.05;;
21162;SDS011;10739;52.198;20.908;2023-02-01T13:23:28;17.25;;;4.72;;
21162;SDS011;10739;52.198;20.908;2023-02-01T13:25:59;25.75;;;5.20;;
21162;SDS011;10739;52.198;20.908;2023-02-01T13:28:27;23.35;;;5.70;;
21162;SDS011;10739;52.198;20.908;2023-02-01T13:31:42;21.45;;;5.63;;
21162;SDS011;10739;52.198;20.908;2023-02-01T13:37:41;17.10;;;4.93;;
21162;SDS011;10739;52.198;20.908;2023-02-01T13:41:14;19.67;;;5.13;;
21162;SDS011;10739;52.198;20.908;2023-02-01T13:43:50;18.85;;;4.93;;
21162;SDS011;10739;52.198;20.908;2023-02-01T13:46:42;18.00;;;5.05;;
21162;SDS011;10739;52.198;20.908;2023-02-01T13:49:21;13.38;;;4.50;;
21162;SDS011;10739;52.198;20.908;2023-02-01T13:51:54;14.93;;;4.80;;
21162;SDS011;10739;52.198;20.908;2023-02-01T13:54:24;24.42;;;5.28;;
21162;SDS011;10739;52.198;20.908;2023-02-01T13:57:02;14.32;;;4.28;;
21162;SDS011;10739;52.198;20.908;2023-02-01T14:23:54;16.20;;;4.47;;
21162;SDS011;10739;52.198;20.908;2023-02-01T14:32:03;15.05;;;4.82;;
21162;SDS011;10739;52.198;20.908;2023-02-01T14:42:25;13.98;;;4.18;;
21162;SDS011;10739;52.198;20.908;2023-02-01T14:47:48;10.73;;;3.10;;
21162;SDS011;10739;52.198;20.908;2023-02-01T14:50:23;11.82;;;3.67;;
21162;SDS011;10739;52.198;20.908;2023-02-01T14:58:42;12.23;;;4.45;;
21162;SDS011;10739;52.198;20.908;2023-02-01T15:01:33;7.32;;;4.50;;
21162;SDS011;10739;52.198;20.908;2023-02-01T15:14:41;10.63;;;4.20;;
21162;SDS011;10739;52.198;20.908;2023-02-01T15:19:58;8.23;;;4.32;;
21162;SDS011;10739;52.198;20.908;2023-02-01T15:22:28;9.88;;;4.43;;
21162;SDS011;10739;52.198;20.908;2023-02-01T15:24:57;9.32;;;4.68;;
21162;SDS011;10739;52.198;20.908;2023-02-01T15:27:26;7.50;;;4.20;;
21162;SDS011;10739;52.198;20.908;2023-02-01T15:30:04;13.68;;;4.25;;
21162;SDS011;10739;52.198;20.908;2023-02-01T15:33:13;11.52;;;4.75;;
21162;SDS011;10739;52.198;20.908;2023-02-01T15:35:45;9.73;;;4.78;;
21162;SDS011;10739;52.198;20.908;2023-02-01T15:40:54;23.85;;;5.18;;
21162;SDS011;10739;52.198;20.908;2023-02-01T15:43:24;9.73;;;5.30;;
21162;SDS011;10739;52.198;20.908;2023-02-01T15:45:52;13.93;;;5.25;;
21162;SDS011;10739;52.198;20.908;2023-02-01T15:48:25;13.38;;;5.95;;
21162;SDS011;10739;52.198;20.908;2023-02-01T15:51:00;12.45;;;4.68;;
21162;SDS011;10739;52.198;20.908;2023-02-01T15:53:27;11.85;;;4.88;;
21162;SDS011;10739;52.198;20.908;2023-02-01T15:55:57;11.80;;;4.80;;
21162;SDS011;10739;52.198;20.908;2023-02-01T16:01:01;8.45;;;4.90;;
21162;SDS011;10739;52.198;20.908;2023-02-01T16:03:33;11.80;;;5.00;;
21162;SDS011;10739;52.198;20.908;2023-02-01T16:06:11;10.52;;;4.68;;
21162;SDS011;10739;52.198;20.908;2023-02-01T16:11:40;12.27;;;5.68;;
21162;SDS011;10739;52.198;20.908;2023-02-01T16:14:25;13.13;;;5.45;;
21162;SDS011;10739;52.198;20.908;2023-02-01T16:16:53;8.88;;;5.68;;
21162;SDS011;10739;52.198;20.908;2023-02-01T16:19:23;13.32;;;5.63;;
21162;SDS011;10739;52.198;20.908;2023-02-01T16:21:56;12.85;;;5.63;;
21162;SDS011;10739;52.198;20.908;2023-02-01T16:24:24;11.23;;;5.72;;
21162;SDS011;10739;52.198;20.908;2023-02-01T16:26:51;10.20;;;5.65;;
21162;SDS011;10739;52.198;20.908;2023-02-01T16:29:17;11.05;;;5.65;;
21162;SDS011;10739;52.198;20.908;2023-02-01T16:31:43;10.88;;;6.35;;
21162;SDS011;10739;52.198;20.908;2023-02-01T16:34:14;11.95;;;5.88;;
21162;SDS011;10739;52.198;20.908;2023-02-01T16:36:47;11.30;;;6.45;;
21162;SDS011;10739;52.198;20.908;2023-02-01T16:39:22;16.00;;;6.70;;
21162;SDS011;10739;52.198;20.908;2023-02-01T16:41:50;12.93;;;6.38;;
21162;SDS011;10739;52.198;20.908;2023-02-01T16:44:16;11.85;;;6.32;;
21162;SDS011;10739;52.198;20.908;2023-02-01T16:46:43;14.20;;;6.43;;
21162;SDS011;10739;52.198;20.908;2023-02-01T16:49:20;13.02;;;6.93;;
21162;SDS011;10739;52.198;20.908;2023-02-01T16:51:51;14.45;;;6.88;;
21162;SDS011;10739;52.198;20.908;2023-02-01T16:54:23;10.98;;;6.72;;
21162;SDS011;10739;52.198;20.908;2023-02-01T16:56:49;13.35;;;6.82;;
21162;SDS011;10739;52.198;20.908;2023-02-01T16:59:15;15.07;;;6.32;;
21162;SDS011;10739;52.198;20.908;2023-02-01T17:01:42;12.25;;;6.45;;
21162;SDS011;10739;52.198;20.908;2023-02-01T17:04:11;13.45;;;7.22;;
21162;SDS011;10739;52.198;20.908;2023-02-01T17:06:37;13.35;;;6.45;;
21162;SDS011;10739;52.198;20.908;2023-02-01T17:09:04;12.40;;;6.57;;
21162;SDS011;10739;52.198;20.908;2023-02-01T17:11:31;16.80;;;6.90;;
21162;SDS011;10739;52.198;20.908;2023-02-01T17:14:15;18.55;;;7.80;;
21162;SDS011;10739;52.198;20.908;2023-02-01T17:16:46;13.25;;;6.93;;
21162;SDS011;10739;52.198;20.908;2023-02-01T17:19:19;17.60;;;7.85;;
21162;SDS011;10739;52.198;20.908;2023-02-01T17:21:52;16.35;;;6.45;;
21162;SDS011;10739;52.198;20.908;2023-02-01T17:24:26;17.65;;;7.45;;
21162;SDS011;10739;52.198;20.908;2023-02-01T17:26:58;10.07;;;6.55;;
21162;SDS011;10739;52.198;20.908;2023-02-01T17:29:31;12.60;;;6.45;;
21162;SDS011;10739;52.198;20.908;2023-02-01T17:32:04;16.27;;;6.90;;
21162;SDS011;10739;52.198;20.908;2023-02-01T17:35:21;15.32;;;6.75;;
21162;SDS011;10739;52.198;20.908;2023-02-01T17:37:50;13.88;;;6.43;;
21162;SDS011;10739;52.198;20.908;2023-02-01T17:40:17;13.82;;;6.05;;
21162;SDS011;10739;52.198;20.908;2023-02-01T17:42:44;13.95;;;6.38;;
21162;SDS011;10739;52.198;20.908;2023-02-01T17:48:02;14.05;;;6.45;;
21162;SDS011;10739;52.198;20.908;2023-02-01T17:50:30;15.00;;;6.63;;
21162;SDS011;10739;52.198;20.908;2023-02-01T17:53:01;15.43;;;6.85;;
21162;SDS011;10739;52.198;20.908;2023-02-01T17:55:28;15.93;;;6.65;;
21162;SDS011;10739;52.198;20.908;2023-02-01T17:57:54;11.55;;;5.90;;